Results 1 to 3 of 3

Thread: Bad Crash At Aspen Airport

  1. #1
    Senior Member Gerard's Avatar
    Join Date
    Apr 2007
    Location
    Long Island
    Posts
    4,851

  2. #2
    Senior Member MarkLawrence's Avatar
    Join Date
    Apr 2005
    Location
    1 Miles NNW of NOVAE - KFLL - Davie, FL
    Posts
    3,911
    Here is the Flightaware track - there is a 360 during the flight - as well as a lot of circling around ASE - I wonder if they knew of an issue:

    http://flightaware.com/live/flight/N...615Z/KTUS/KASE
    Mark Lawrence - KFLL
    Davie, FL

    Community Manager NYCAviation.com
    email: [email protected]

    http://www.jetphotos.net/showphotos.php?userid=1538
    http://amateuravphoto.blogspot.com

  3. #3
    Senior Member
    Join Date
    Oct 2006
    Posts
    1,041
    N115WF calls missed approach @ 11:00 citing "33 kts tailwind".
    N115WF level at 16000 and asks departure to try approach again @ 12:30.
    Cleared for LOC/DME-E approach @ 17:00.
    N115WF's landing clearance @ 20:25.
    Around 21:50 you can hear some background noise from the ground controller that sounds like them witnessing the accident, and around 22:00 you can hear one of the crew on 312SB apparently also seeing the accident.

    METARs at time of the accident:
    KASE 051853Z 31009G28KT 270V360 9SM HZ FEW035 BKN046 OVC050 M11/M20 A3007 RMK AO2 PK WND 33028/1851 SLP243 T11111200
    KASE 051953Z 31016G30KT 7SM HZ BKN037 OVC048 M12/M20 A3008 RMK AO2 PK WND 32030/1950 SNB40E50 SLP248 P0000 T11221200
    Last edited by heeshung; 01-05-2014 at 04:46 PM.

Bookmarks

Posting Permissions

  • You may not post new threads
  • You may not post replies
  • You may not post attachments
  • You may not edit your posts
  •